Terminal Aerodrome Forecast
Issued by NWS Twin Cities, MN

Home | Current Version | Previous Version | Text Only | Print | Product List | Glossary On
Versions: 1 2 3 4 5 6 7 8 9 10 11 12 13 14 15
000
FTUS43 KMPX 251120
TAFEAU
TAF
KEAU 251120Z 2512/2612 09012KT P6SM SCT020 OVC040
     FM251500 09014G20KT P6SM OVC050
     FM252000 07010KT P6SM BKN050
     FM260000 06004KT P6SM SKC=

USA.gov is the U.S. government's official web portal to all federal, state and local government web resources and services.